createdAt,value
2023-03-26T00:04:28.068Z,96032.09
2023-03-26T00:09:48.971Z,96025.66
2023-03-26T00:15:10.541Z,96040.41
2023-03-26T00:20:34.687Z,96032.78
2023-03-26T00:25:56.791Z,96035.47
2023-03-26T00:31:18.160Z,96031.66
2023-03-26T00:36:39.060Z,96036.31
2023-03-26T00:41:59.679Z,96036.72
2023-03-26T00:47:21.324Z,96036.34
2023-03-26T00:52:45.051Z,96046.41
2023-03-26T00:58:06.330Z,96037.66
2023-03-26T01:03:33.826Z,96037.41
2023-03-26T01:09:00.416Z,96027.84
2023-03-26T01:14:25.068Z,96031.78
2023-03-26T01:20:13.246Z,96026.47
2023-03-26T01:25:43.292Z,96020.31
2023-03-26T01:31:14.161Z,96020.31
2023-03-26T01:36:44.670Z,96004.06
2023-03-26T01:42:21.613Z,95993.56
2023-03-26T01:47:44.034Z,95988.00
2023-03-26T01:53:06.161Z,95998.13
2023-03-26T01:58:41.710Z,96002.47
2023-03-26T02:04:11.572Z,96006.34
2023-03-26T02:09:39.293Z,96003.59
2023-03-26T02:15:01.895Z,96005.50
2023-03-26T02:20:22.986Z,96009.88
2023-03-26T02:25:43.922Z,95994.31
2023-03-26T02:31:05.643Z,95989.66
2023-03-26T02:36:30.296Z,95997.59
2023-03-26T02:41:54.666Z,95993.22
2023-03-26T02:47:15.908Z,95989.13
2023-03-26T02:52:49.092Z,95998.41
2023-03-26T02:58:12.308Z,95993.06
2023-03-26T03:03:34.602Z,95991.03
2023-03-26T03:09:19.056Z,95990.34
2023-03-26T03:14:58.546Z,95983.50
2023-03-26T03:20:19.437Z,95984.19
2023-03-26T03:25:41.711Z,95986.91
2023-03-26T03:31:03.631Z,95981.19
2023-03-26T03:36:28.004Z,95989.38
2023-03-26T03:41:59.020Z,95996.75
2023-03-26T03:47:20.438Z,95990.72
2023-03-26T03:52:41.804Z,95998.50
2023-03-26T03:58:03.853Z,95986.38
2023-03-26T04:03:33.930Z,95981.47
2023-03-26T04:08:58.455Z,95983.78
2023-03-26T04:14:20.124Z,95985.72
2023-03-26T04:20:14.929Z,95979.56
2023-03-26T04:25:39.466Z,95989.25
2023-03-26T04:31:29.136Z,95980.41
2023-03-26T04:36:54.679Z,95977.69
2023-03-26T04:42:20.088Z,95978.78
2023-03-26T04:48:02.391Z,95977.13
2023-03-26T04:53:24.266Z,95973.59
2023-03-26T04:59:25.999Z,95979.44
2023-03-26T05:04:50.036Z,95976.84
2023-03-26T05:10:15.345Z,95980.13
2023-03-26T05:16:05.947Z,95978.75
2023-03-26T05:21:42.462Z,95986.13
2023-03-26T05:27:03.531Z,95987.50
2023-03-26T05:32:36.570Z,95983.53
2023-03-26T05:37:58.242Z,95984.72
2023-03-26T05:43:19.886Z,95991.81
2023-03-26T05:48:48.053Z,95984.31
2023-03-26T05:54:09.208Z,95988.28
2023-03-26T05:59:48.504Z,95976.41
2023-03-26T06:05:43.062Z,95978.06
2023-03-26T06:11:12.619Z,95974.47
2023-03-26T06:16:33.833Z,95979.78
2023-03-26T06:22:14.581Z,95976.63
2023-03-26T06:27:54.469Z,95975.75
2023-03-26T06:33:48.797Z,95972.22
2023-03-26T06:39:10.216Z,95954.50
2023-03-26T06:44:37.614Z,95950.16
2023-03-26T06:50:17.023Z,95952.88
2023-03-26T06:55:49.969Z,95956.91
2023-03-26T07:01:16.937Z,95948.66
2023-03-26T07:06:56.581Z,95958.03
2023-03-26T07:12:36.244Z,95957.78
2023-03-26T07:18:17.375Z,95952.81
2023-03-26T07:23:39.963Z,95950.44
2023-03-26T07:29:45.403Z,95949.00
2023-03-26T07:35:49.104Z,95938.47
2023-03-26T07:41:50.494Z,95936.63
2023-03-26T07:47:33.849Z,95923.44
2023-03-26T07:53:17.087Z,95929.47
2023-03-26T07:59:22.396Z,95916.28
2023-03-26T08:05:20.127Z,95917.88
2023-03-26T08:11:40.927Z,95906.53
2023-03-26T08:17:40.628Z,95898.50
2023-03-26T08:23:12.075Z,95890.31
2023-03-26T08:28:46.008Z,95897.66
2023-03-26T08:34:11.496Z,95891.47
2023-03-26T08:39:32.244Z,95880.41
2023-03-26T08:45:30.367Z,95879.13
2023-03-26T08:51:05.240Z,95871.63
2023-03-26T08:56:49.428Z,95847.97
2023-03-26T09:02:53.387Z,95824.00
2023-03-26T09:08:14.135Z,95812.22
2023-03-26T09:13:53.314Z,95807.22
2023-03-26T09:19:44.451Z,95795.38
2023-03-26T09:25:41.615Z,95792.94
2023-03-26T09:31:36.450Z,95792.44
2023-03-26T09:37:14.342Z,95799.47
2023-03-26T09:42:53.705Z,95788.69
2023-03-26T09:48:54.193Z,95775.50
2023-03-26T09:54:30.844Z,95778.06
2023-03-26T10:00:16.654Z,95765.53
2023-03-26T10:05:52.747Z,95763.41
2023-03-26T10:11:27.000Z,95746.94
2023-03-26T10:17:33.831Z,95741.25
2023-03-26T10:23:12.967Z,95731.66
2023-03-26T10:28:52.724Z,95728.59
2023-03-26T10:34:35.118Z,95723.25
2023-03-26T10:40:28.509Z,95709.25
2023-03-26T10:46:22.884Z,95700.09
2023-03-26T10:51:56.040Z,95700.31
2023-03-26T10:57:34.694Z,95695.50
2023-03-26T11:03:20.388Z,95697.31
2023-03-26T11:08:52.827Z,95690.47
2023-03-26T11:14:42.602Z,95685.44
2023-03-26T11:20:07.606Z,95674.72
2023-03-26T11:25:43.490Z,95671.59
2023-03-26T11:31:13.398Z,95659.63
2023-03-26T11:36:41.313Z,95670.88
2023-03-26T11:42:12.679Z,95661.78
2023-03-26T11:47:44.957Z,95663.22
2023-03-26T11:53:18.016Z,95654.47
2023-03-26T11:58:50.265Z,95654.47
2023-03-26T12:04:14.629Z,95648.41
2023-03-26T12:09:35.524Z,95645.34
2023-03-26T12:14:56.346Z,95645.28
2023-03-26T12:20:26.231Z,95645.94
2023-03-26T12:26:05.663Z,95637.81
2023-03-26T12:31:26.658Z,95640.97
2023-03-26T12:36:56.601Z,95638.94
2023-03-26T12:44:44.082Z,95629.72
2023-03-26T12:48:09.967Z,95625.50
2023-03-26T12:53:57.836Z,95618.50
2023-03-26T12:59:24.363Z,95618.34
2023-03-26T13:05:06.062Z,95629.09
2023-03-26T13:11:12.628Z,95618.66
2023-03-26T13:16:45.193Z,95622.78
2023-03-26T13:22:24.837Z,95611.72
2023-03-26T13:27:56.008Z,95608.16
2023-03-26T13:33:45.042Z,95609.94
2023-03-26T13:39:37.771Z,95619.56
2023-03-26T13:45:05.701Z,95612.25
2023-03-26T13:50:35.617Z,95607.69
2023-03-26T13:55:59.685Z,95605.41
2023-03-26T14:01:46.097Z,95592.72
2023-03-26T14:07:29.030Z,95582.47
2023-03-26T14:12:57.577Z,95601.00
2023-03-26T14:18:44.262Z,95591.41
2023-03-26T14:24:34.716Z,95586.38
2023-03-26T14:30:23.253Z,95570.44
2023-03-26T14:36:02.719Z,95573.03
2023-03-26T14:41:27.904Z,95566.47
2023-03-26T14:46:48.848Z,95563.88
2023-03-26T14:52:31.266Z,95565.84
2023-03-26T14:58:16.522Z,95556.94
2023-03-26T15:03:59.182Z,95550.25
2023-03-26T15:09:46.326Z,95542.44
2023-03-26T15:15:28.706Z,95535.97
2023-03-26T15:21:20.206Z,95523.09
2023-03-26T15:26:47.226Z,95523.09
2023-03-26T15:32:30.305Z,95523.25
2023-03-26T15:38:06.168Z,95536.66
2023-03-26T15:44:05.065Z,95516.09
2023-03-26T15:49:42.747Z,95509.72
2023-03-26T15:55:21.494Z,95493.81
2023-03-26T16:00:56.126Z,95494.50
2023-03-26T16:06:46.574Z,95497.69
2023-03-26T16:12:16.436Z,95498.19
2023-03-26T16:18:19.518Z,95500.53
2023-03-26T16:23:47.763Z,95487.50
2023-03-26T16:29:18.362Z,95483.84
2023-03-26T16:34:57.333Z,95476.16
2023-03-26T16:40:18.212Z,95481.53
2023-03-26T16:45:58.104Z,95479.44
2023-03-26T16:51:49.392Z,95464.34
2023-03-26T16:57:24.682Z,95470.19
2023-03-26T17:03:17.896Z,95472.03
2023-03-26T17:08:39.145Z,95470.97
2023-03-26T17:14:14.159Z,95478.59
2023-03-26T17:19:41.965Z,95470.84
2023-03-26T17:25:21.637Z,95474.53
2023-03-26T17:31:23.807Z,95475.69
2023-03-26T17:36:46.016Z,95492.81
2023-03-26T17:42:16.133Z,95494.59
2023-03-26T17:48:15.555Z,95483.09
2023-03-26T17:53:37.844Z,95479.34
2023-03-26T17:59:11.526Z,95483.59
2023-03-26T18:04:39.418Z,95480.38
2023-03-26T18:10:34.572Z,95473.84
2023-03-26T18:16:01.470Z,95478.91
2023-03-26T18:21:28.607Z,95474.66
2023-03-26T18:26:55.445Z,95474.81
2023-03-26T18:32:22.290Z,95485.22
2023-03-26T18:37:46.022Z,95492.56
2023-03-26T18:43:28.579Z,95475.47
2023-03-26T18:48:55.735Z,95467.34
2023-03-26T18:54:19.633Z,95466.50
2023-03-26T18:59:45.242Z,95459.16
2023-03-26T19:05:07.564Z,95450.06
2023-03-26T19:10:28.954Z,95435.88
2023-03-26T19:15:52.150Z,95431.16
2023-03-26T19:21:14.732Z,95429.34
2023-03-26T19:26:36.744Z,95428.72
2023-03-26T19:32:20.649Z,95430.56
2023-03-26T19:37:55.370Z,95417.34
2023-03-26T19:43:17.423Z,95420.00
2023-03-26T19:48:45.760Z,95419.47
2023-03-26T19:54:16.426Z,95412.47
2023-03-26T19:59:37.087Z,95409.69
2023-03-26T20:04:57.951Z,95408.47
2023-03-26T20:10:18.960Z,95416.59
2023-03-26T20:15:40.941Z,95427.75
2023-03-26T20:21:02.367Z,95418.44
2023-03-26T20:26:24.260Z,95401.25
2023-03-26T20:31:46.078Z,95394.81
2023-03-26T20:37:07.127Z,95396.41
2023-03-26T20:42:28.048Z,95389.00
2023-03-26T20:47:50.586Z,95390.34
2023-03-26T20:53:16.513Z,95396.44
2023-03-26T20:58:39.175Z,95390.28
2023-03-26T21:04:00.168Z,95394.25
2023-03-26T21:09:25.257Z,95388.75
2023-03-26T21:14:46.725Z,95380.78
2023-03-26T21:20:13.489Z,95385.59
2023-03-26T21:25:54.092Z,95389.81
2023-03-26T21:31:20.248Z,95375.50
2023-03-26T21:36:42.037Z,95378.94
2023-03-26T21:42:04.720Z,95373.44
2023-03-26T21:47:27.074Z,95358.78
2023-03-26T21:52:51.016Z,95350.22
2023-03-26T21:58:52.475Z,95328.50
2023-03-26T22:04:34.808Z,95305.47
2023-03-26T22:09:55.856Z,95299.75
2023-03-26T22:15:18.474Z,95295.53
2023-03-26T22:20:39.553Z,95294.25
2023-03-26T22:26:00.469Z,95301.34
2023-03-26T22:31:21.326Z,95298.56
2023-03-26T22:36:42.117Z,95317.34
2023-03-26T22:42:03.859Z,95327.56
2023-03-26T22:47:25.010Z,95340.22
2023-03-26T22:52:46.260Z,95346.59
2023-03-26T22:58:06.916Z,95348.41
2023-03-26T23:03:35.108Z,95353.19
2023-03-26T23:08:57.079Z,95357.72
2023-03-26T23:14:19.121Z,95364.25
2023-03-26T23:19:40.076Z,95365.31
2023-03-26T23:25:00.980Z,95371.56
2023-03-26T23:30:21.743Z,95373.63
2023-03-26T23:35:44.241Z,95372.91
2023-03-26T23:41:06.171Z,95377.50
2023-03-26T23:46:34.802Z,95374.69
2023-03-26T23:51:55.738Z,95360.28
2023-03-26T23:57:18.469Z,95363.34
